Time;durP1;ratioP1;P1;durP2;ratioP2;P2;SDS_P1;SDS_P2;PMS_P1;PMS_P2;Temp;Humidity;BMP_temperature;BMP_pressure;BME280_temperature;BME280_humidity;BME280_pressure;Samples;Min_cycle;Max_cycle;Signal;HPM_P1;HPM_P2
2021/12/19 00:00:13;;;;;;;26.33;13.15;;;;;;;-145.45;100.00;62759.84;5251284;28;20026;-87
2021/12/19 00:08:34;;;;;;;27.95;13.02;;;;;;;-145.45;100.00;62759.84;5222542;28;20034;-88
2021/12/19 00:11:06;;;;;;;22.45;12.23;;;;;;;-145.45;100.00;62759.84;5206693;28;20347;-87
2021/12/19 00:13:40;;;;;;;28.30;13.50;;;;;;;-145.45;100.00;62759.84;5221103;28;20034;-88
2021/12/19 00:16:12;;;;;;;22.20;11.90;;;;;;;-145.45;100.00;62759.84;5242342;28;20121;-87
2021/12/19 00:18:46;;;;;;;22.90;12.80;;;;;;;-145.45;100.00;62759.84;5247188;28;20132;-87
2021/12/19 00:21:20;;;;;;;22.98;12.90;;;;;;;-145.45;100.00;62759.84;5213318;28;20030;-87
2021/12/19 00:23:53;;;;;;;26.10;13.63;;;;;;;-145.45;100.00;62759.84;5237573;28;20483;-87
2021/12/19 00:26:25;;;;;;;26.23;13.30;;;;;;;-145.45;100.00;62759.84;5228697;28;20546;-87
2021/12/19 00:28:56;;;;;;;26.85;14.40;;;;;;;-145.45;100.00;62759.84;5231768;28;20026;-87
2021/12/19 00:31:27;;;;;;;27.90;14.70;;;;;;;-145.45;100.00;62759.84;5205237;28;20085;-88
2021/12/19 00:33:59;;;;;;;28.95;14.43;;;;;;;-145.45;100.00;62759.84;5217523;28;20022;-88
2021/12/19 00:36:31;;;;;;;30.23;15.05;;;;;;;-145.45;100.00;62759.84;5225491;28;20134;-88
2021/12/19 00:39:02;;;;;;;29.63;15.80;;;;;;;-145.45;100.00;62759.84;5234421;28;20197;-87
2021/12/19 00:41:34;;;;;;;31.58;14.52;;;;;;;-145.45;100.00;62759.84;5236570;28;20479;-87
2021/12/19 00:44:11;;;;;;;36.35;16.40;;;;;;;-145.45;100.00;62759.84;5227945;28;20070;-87
2021/12/19 00:46:49;;;;;;;32.40;16.33;;;;;;;-145.45;100.00;62759.84;5223709;28;20105;-87
2021/12/19 00:49:22;;;;;;;33.63;15.85;;;;;;;-145.45;100.00;62759.84;5227468;28;20395;-87
2021/12/19 00:51:54;;;;;;;32.13;16.08;;;;;;;-145.45;100.00;62759.84;5235850;28;20034;-88
2021/12/19 00:54:25;;;;;;;33.47;15.40;;;;;;;-145.45;100.00;62759.84;5221923;28;20053;-87
2021/12/19 00:56:56;;;;;;;36.13;16.30;;;;;;;-145.45;100.00;62759.84;5243397;28;20072;-87
2021/12/19 00:59:28;;;;;;;41.67;17.67;;;;;;;-145.45;100.00;62759.84;5204474;28;20531;-88
2021/12/19 01:01:59;;;;;;;38.47;17.15;;;;;;;-145.45;100.00;62759.84;5212121;28;20161;-87
2021/12/19 01:04:30;;;;;;;39.00;16.75;;;;;;;-145.45;100.00;62759.84;5224091;28;20051;-87
2021/12/19 01:07:02;;;;;;;39.80;16.70;;;;;;;-145.45;100.00;62759.84;5210326;28;20022;-88
2021/12/19 01:09:34;;;;;;;35.13;16.42;;;;;;;-145.45;100.00;62759.84;5226868;28;20026;-88
2021/12/19 01:12:10;;;;;;;35.60;16.00;;;;;;;-145.45;100.00;62759.84;5243326;28;20467;-88
2021/12/19 01:14:41;;;;;;;46.00;17.88;;;;;;;-145.45;100.00;62759.84;5206401;28;20372;-88
2021/12/19 01:17:12;;;;;;;46.55;17.65;;;;;;;-145.45;100.00;62759.84;5231117;28;20033;-88
2021/12/19 01:19:45;;;;;;;37.28;16.85;;;;;;;-145.45;100.00;62759.84;5225208;28;20735;-87
2021/12/19 01:22:16;;;;;;;41.17;17.48;;;;;;;-145.45;100.00;62759.84;5220719;28;20030;-88
2021/12/19 01:24:48;;;;;;;39.78;17.02;;;;;;;-145.45;100.00;62759.84;5220231;28;20030;-88
2021/12/19 01:27:19;;;;;;;36.50;15.35;;;;;;;-145.45;100.00;62759.84;5220213;28;20037;-88
2021/12/19 01:29:50;;;;;;;45.10;15.65;;;;;;;-145.45;100.00;62759.84;5216026;28;20118;-88
2021/12/19 01:32:22;;;;;;;46.45;16.88;;;;;;;-145.45;100.00;62759.84;5227005;28;20041;-87
2021/12/19 01:34:53;;;;;;;44.35;16.05;;;;;;;-145.45;100.00;62759.84;5224763;28;20030;-87
2021/12/19 01:37:24;;;;;;;46.20;16.23;;;;;;;-145.45;100.00;62759.84;5219829;28;20041;-87
2021/12/19 01:39:56;;;;;;;45.80;15.05;;;;;;;-145.45;100.00;62759.84;5220874;28;20034;-88
2021/12/19 01:42:37;;;;;;;38.72;14.50;;;;;;;-145.45;100.00;62759.84;5228585;28;20518;-87
2021/12/19 01:45:11;;;;;;;36.50;14.85;;;;;;;-145.45;100.00;62759.84;5230239;28;20058;-88
2021/12/19 01:47:42;;;;;;;38.22;14.35;;;;;;;-145.45;100.00;62759.84;5223490;28;20371;-88
2021/12/19 01:50:14;;;;;;;39.63;13.75;;;;;;;-145.45;100.00;62759.84;5202062;28;20030;-88
2021/12/19 01:52:46;;;;;;;33.97;15.00;;;;;;;-145.45;100.00;62759.84;5225050;28;20037;-88
2021/12/19 01:55:17;;;;;;;39.72;16.27;;;;;;;-145.45;100.00;62759.84;5221495;28;20018;-88
2021/12/19 01:57:49;;;;;;;34.25;14.13;;;;;;;-145.45;100.00;62759.84;5223916;28;20471;-88
2021/12/19 02:00:25;;;;;;;29.02;13.85;;;;;;;-145.45;100.00;62759.84;5224280;28;20038;-88
2021/12/19 02:02:57;;;;;;;35.05;12.60;;;;;;;-145.45;100.00;62759.84;5222723;28;20046;-87
2021/12/19 02:05:29;;;;;;;33.05;13.45;;;;;;;-145.45;100.00;62759.84;5202738;28;20437;-88
2021/12/19 02:08:01;;;;;;;35.72;13.98;;;;;;;-145.45;100.00;62759.84;5226830;28;20410;-88
2021/12/19 02:10:33;;;;;;;35.30;15.15;;;;;;;-145.45;100.00;62759.84;5228918;28;20369;-88
2021/12/19 02:13:07;;;;;;;32.60;13.75;;;;;;;-145.45;100.00;62759.84;5227284;28;20040;-88
2021/12/19 02:15:40;;;;;;;34.60;14.10;;;;;;;-145.45;100.00;62759.84;5234511;28;20514;-88
2021/12/19 02:18:15;;;;;;;33.60;13.10;;;;;;;-145.45;100.00;62759.84;5219311;28;20023;-87
2021/12/19 02:20:50;;;;;;;32.88;14.20;;;;;;;-145.45;100.00;62759.84;5227267;28;20040;-88
2021/12/19 02:23:24;;;;;;;31.23;14.47;;;;;;;-145.45;100.00;62759.84;5223779;28;20037;-88
2021/12/19 02:25:57;;;;;;;38.08;14.88;;;;;;;-145.45;100.00;62759.84;5235144;28;20058;-88
2021/12/19 02:28:28;;;;;;;41.30;15.07;;;;;;;-145.45;100.00;62759.84;5246880;28;20082;-87
2021/12/19 02:30:59;;;;;;;37.13;15.48;;;;;;;-145.45;100.00;62759.84;5245402;28;20022;-88
2021/12/19 02:33:35;;;;;;;46.40;16.77;;;;;;;-145.45;100.00;62759.84;5238227;28;20033;-87
2021/12/19 02:50:16;;;;;;;51.88;16.83;;;;;;;-145.45;100.00;62759.84;5241847;28;20043;-88
2021/12/19 02:52:47;;;;;;;48.50;15.05;;;;;;;-145.45;100.00;62759.84;5204730;28;20464;-88
2021/12/19 02:55:19;;;;;;;51.92;18.02;;;;;;;-145.45;100.00;62759.84;5225876;28;20033;-88
2021/12/19 02:57:50;;;;;;;58.60;17.42;;;;;;;-145.45;100.00;62759.84;5232744;28;20097;-88
2021/12/19 03:00:25;;;;;;;54.60;17.48;;;;;;;-145.45;100.00;62759.84;5226807;28;20484;-88
2021/12/19 03:02:57;;;;;;;58.45;17.75;;;;;;;-145.45;100.00;62759.84;5221120;28;20480;-88
2021/12/19 03:05:31;;;;;;;73.78;18.23;;;;;;;-145.45;100.00;62759.84;5224038;28;20043;-88
2021/12/19 03:08:04;;;;;;;65.75;18.05;;;;;;;-145.45;100.00;62759.84;5228205;28;20021;-88
2021/12/19 03:11:33;;;;;;;64.30;17.50;;;;;;;-145.45;100.00;62759.84;5231758;28;20070;-88
2021/12/19 03:17:56;;;;;;;70.15;17.08;;;;;;;-145.45;100.00;62759.84;5224994;28;20034;-89
2021/12/19 03:19:29;;;;;;;64.35;17.77;;;;;;;-145.45;100.00;62759.84;5170713;28;20046;-88
2021/12/19 03:22:00;;;;;;;59.45;16.52;;;;;;;-145.45;100.00;62759.84;5211246;28;20018;-88
2021/12/19 03:24:31;;;;;;;62.55;17.75;;;;;;;-145.45;100.00;62759.84;5193168;28;20034;-88
2021/12/19 03:27:03;;;;;;;73.40;17.45;;;;;;;-145.45;100.00;62759.84;5220164;28;24501;-88
2021/12/19 03:29:34;;;;;;;81.70;17.95;;;;;;;-145.45;100.00;62759.84;5226355;28;20105;-88
2021/12/19 03:32:06;;;;;;;76.68;17.35;;;;;;;-145.45;100.00;62759.84;5211205;28;20026;-88
2021/12/19 03:34:37;;;;;;;73.18;17.77;;;;;;;-145.45;100.00;62759.84;5220129;28;20026;-88
2021/12/19 03:37:08;;;;;;;90.18;18.52;;;;;;;-145.45;100.00;62759.84;5226976;28;20113;-88
2021/12/19 03:42:30;;;;;;;67.47;18.88;;;;;;;-145.45;100.00;62759.84;5231882;28;20030;-88
2021/12/19 03:45:04;;;;;;;84.25;20.17;;;;;;;-145.45;100.00;62759.84;5218975;28;20030;-89
2021/12/19 03:47:35;;;;;;;78.70;18.75;;;;;;;-145.45;100.00;62759.84;5212908;28;20117;-88
2021/12/19 03:50:09;;;;;;;74.60;19.27;;;;;;;-145.45;100.00;62759.84;5236368;28;20420;-88
2021/12/19 03:52:40;;;;;;;66.70;17.92;;;;;;;-145.45;100.00;62759.84;5217501;28;20034;-88
2021/12/19 03:55:12;;;;;;;79.32;19.75;;;;;;;-145.45;100.00;62759.84;5224008;28;20022;-88
2021/12/19 03:57:43;;;;;;;76.75;20.45;;;;;;;-145.45;100.00;62759.84;5228646;28;20030;-88
2021/12/19 04:00:23;;;;;;;63.15;19.17;;;;;;;-145.45;100.00;62759.84;5234950;28;20037;-88
2021/12/19 04:02:58;;;;;;;73.75;20.60;;;;;;;-145.45;100.00;62759.84;5224770;28;20357;-88
2021/12/19 04:05:29;;;;;;;71.07;19.50;;;;;;;-145.45;100.00;62759.84;5219652;28;20093;-88
2021/12/19 04:08:01;;;;;;;83.18;21.02;;;;;;;-145.45;100.00;62759.84;5226606;28;20464;-88
2021/12/19 04:10:33;;;;;;;88.85;21.95;;;;;;;-145.45;100.00;62759.84;5218600;28;20424;-88
2021/12/19 04:13:04;;;;;;;85.30;22.20;;;;;;;-145.45;100.00;62759.84;5217191;28;20391;-89
2021/12/19 04:15:36;;;;;;;82.72;22.73;;;;;;;-145.45;100.00;62759.84;5230350;28;20041;-88
2021/12/19 04:18:07;;;;;;;70.88;19.58;;;;;;;-145.45;100.00;62759.84;5216452;28;20027;-88
2021/12/19 04:20:38;;;;;;;85.30;18.90;;;;;;;-145.45;100.00;62759.84;5207417;28;20568;-88
2021/12/19 04:23:10;;;;;;;65.93;15.95;;;;;;;-145.45;100.00;62759.84;5225776;28;20074;-88
2021/12/19 04:25:41;;;;;;;67.18;15.32;;;;;;;-145.45;100.00;62759.84;5223550;28;20019;-88
2021/12/19 04:28:13;;;;;;;56.72;16.00;;;;;;;-145.45;100.00;62759.84;5228149;28;20042;-88
2021/12/19 04:30:46;;;;;;;65.47;14.75;;;;;;;-145.45;100.00;62759.84;5225686;28;20037;-88
2021/12/19 04:33:17;;;;;;;65.57;15.98;;;;;;;-145.45;100.00;62759.84;5224870;28;20023;-89
2021/12/19 04:35:49;;;;;;;54.22;15.70;;;;;;;-145.45;100.00;62759.84;5237776;28;20034;-88
2021/12/19 04:41:50;;;;;;;50.90;13.60;;;;;;;-145.45;100.00;62759.84;5243412;28;20034;-88
2021/12/19 04:51:00;;;;;;;52.15;14.85;;;;;;;-145.45;100.00;62759.84;5241481;28;20038;-88
2021/12/19 04:58:24;;;;;;;50.08;14.00;;;;;;;-145.45;100.00;62759.84;5240048;28;20301;-88
2021/12/19 05:03:46;;;;;;;37.88;10.68;;;;;;;-145.45;100.00;62759.84;5231794;28;20095;-88
2021/12/19 05:06:33;;;;;;;38.05;10.60;;;;;;;-145.45;100.00;62759.84;5233968;28;20447;-88
2021/12/19 05:14:50;;;;;;;45.65;11.13;;;;;;;-145.45;100.00;62759.84;5226856;28;20046;-88
2021/12/19 05:17:25;;;;;;;44.03;10.95;;;;;;;-145.45;100.00;62759.84;5223412;28;20030;-88
2021/12/19 05:20:13;;;;;;;40.83;9.95;;;;;;;-145.45;100.00;62759.84;5214326;28;20025;-88
2021/12/19 05:22:49;;;;;;;45.83;11.80;;;;;;;-145.45;100.00;62759.84;5219434;28;20038;-88
2021/12/19 05:25:20;;;;;;;41.20;10.82;;;;;;;-145.45;100.00;62759.84;5222437;28;20041;-88
2021/12/19 05:27:54;;;;;;;59.22;12.50;;;;;;;-145.45;100.00;62759.84;5202947;28;20538;-88
2021/12/19 05:30:26;;;;;;;53.47;13.18;;;;;;;-145.45;100.00;62759.84;5215517;28;20046;-88
2021/12/19 05:32:59;;;;;;;51.45;11.82;;;;;;;-145.45;100.00;62759.84;5217293;28;20018;-88
2021/12/19 05:36:13;;;;;;;50.70;12.07;;;;;;;-145.45;100.00;62759.84;5210933;28;20157;-88
2021/12/19 05:46:47;;;;;;;47.65;12.35;;;;;;;-145.45;100.00;62759.84;5218271;28;20018;-88
2021/12/19 05:49:18;;;;;;;57.63;13.95;;;;;;;-145.45;100.00;62759.84;5218683;28;40727;-87
2021/12/19 05:51:50;;;;;;;39.92;11.75;;;;;;;-145.45;100.00;62759.84;5220497;28;20124;-88
2021/12/19 05:54:21;;;;;;;51.45;12.63;;;;;;;-145.45;100.00;62759.84;5216624;28;20360;-88
2021/12/19 05:56:52;;;;;;;37.72;12.35;;;;;;;-145.45;100.00;62759.84;5215663;28;20475;-88
2021/12/19 05:59:24;;;;;;;26.77;9.40;;;;;;;-145.45;100.00;62759.84;5219321;28;20089;-88
2021/12/19 06:01:55;;;;;;;25.35;8.88;;;;;;;-145.45;100.00;62759.84;5225415;28;20475;-88
2021/12/19 06:04:26;;;;;;;31.42;9.93;;;;;;;-145.45;100.00;62759.84;5216421;28;20027;-88
2021/12/19 06:06:58;;;;;;;30.83;10.15;;;;;;;-145.45;100.00;62759.84;5204564;28;20040;-89
2021/12/19 06:09:29;;;;;;;36.70;11.20;;;;;;;-145.45;100.00;62759.84;5222341;28;20042;-89
2021/12/19 06:12:00;;;;;;;27.40;10.80;;;;;;;-145.45;100.00;62759.84;5227682;28;20040;-88
2021/12/19 06:14:33;;;;;;;39.05;12.10;;;;;;;-145.45;100.00;62759.84;5223073;28;20026;-88
2021/12/19 06:17:05;;;;;;;38.20;11.75;;;;;;;-145.45;100.00;62759.84;5229174;28;20512;-88
2021/12/19 06:19:36;;;;;;;34.53;12.38;;;;;;;-145.45;100.00;62759.84;5225351;28;20155;-88
2021/12/19 06:22:08;;;;;;;28.35;11.90;;;;;;;-145.45;100.00;62759.84;5219157;28;20041;-89
2021/12/19 06:24:40;;;;;;;34.03;12.23;;;;;;;-145.45;100.00;62759.84;5226617;28;20034;-88
2021/12/19 06:27:11;;;;;;;37.05;13.25;;;;;;;-145.45;100.00;62759.84;5213284;28;20019;-88
2021/12/19 06:29:42;;;;;;;42.03;14.32;;;;;;;-145.45;100.00;62759.84;5206259;28;20070;-88
2021/12/19 06:32:13;;;;;;;50.60;15.73;;;;;;;-145.45;100.00;62759.84;5216068;28;20041;-88
2021/12/19 06:34:45;;;;;;;53.47;15.98;;;;;;;-145.45;100.00;62759.84;5212555;28;20030;-88
2021/12/19 06:37:16;;;;;;;53.40;16.50;;;;;;;-145.45;100.00;62759.84;5219140;28;20101;-88
2021/12/19 06:39:48;;;;;;;43.38;15.32;;;;;;;-145.45;100.00;62759.84;5214928;28;20022;-88
2021/12/19 06:42:21;;;;;;;51.95;16.45;;;;;;;-145.45;100.00;62759.84;5233529;28;21022;-88
2021/12/19 06:44:52;;;;;;;51.13;16.70;;;;;;;-145.45;100.00;62759.84;5225612;28;20034;-88
2021/12/19 06:47:24;;;;;;;59.55;17.92;;;;;;;-145.45;100.00;62759.84;5232536;28;20041;-87
2021/12/19 06:49:55;;;;;;;55.05;17.77;;;;;;;-145.45;100.00;62759.84;5208624;28;20538;-88
2021/12/19 06:52:27;;;;;;;64.47;19.42;;;;;;;-145.45;100.00;62759.84;5224168;28;20176;-88
2021/12/19 06:54:58;;;;;;;60.22;19.38;;;;;;;-145.45;100.00;62759.84;5207344;28;20046;-88
2021/12/19 06:57:29;;;;;;;71.75;19.08;;;;;;;-145.45;100.00;62759.84;5230604;28;20030;-88
2021/12/19 07:00:01;;;;;;;59.03;18.02;;;;;;;-145.45;100.00;62759.84;5239795;28;20104;-88
2021/12/19 07:02:33;;;;;;;67.50;19.80;;;;;;;-145.45;100.00;62759.84;5210190;28;20033;-88
2021/12/19 07:05:05;;;;;;;67.05;19.45;;;;;;;-145.45;100.00;62759.84;5213852;28;20190;-88
2021/12/19 07:07:37;;;;;;;70.15;20.10;;;;;;;-145.45;100.00;62759.84;5206016;28;20495;-87
2021/12/19 07:10:09;;;;;;;78.07;19.02;;;;;;;-145.45;100.00;62759.84;5231323;28;20026;-88
2021/12/19 07:12:40;;;;;;;76.78;21.20;;;;;;;-145.45;100.00;62759.84;5229336;28;20046;-88
2021/12/19 07:15:14;;;;;;;78.63;21.20;;;;;;;-145.45;100.00;62759.84;5232772;28;20101;-88
2021/12/19 07:17:45;;;;;;;72.65;22.27;;;;;;;-145.45;100.00;62759.84;5209899;28;20102;-88
2021/12/19 07:20:17;;;;;;;64.50;20.67;;;;;;;-145.45;100.00;62759.84;5204627;28;20029;-88
2021/12/19 07:22:48;;;;;;;63.15;20.20;;;;;;;-145.45;100.00;62759.84;5232021;28;20588;-88
2021/12/19 07:25:19;;;;;;;76.93;21.45;;;;;;;-145.45;100.00;62759.84;5212267;28;20035;-88
2021/12/19 07:27:51;;;;;;;89.07;23.48;;;;;;;-145.45;100.00;62759.84;5228683;28;20045;-88
2021/12/19 07:30:25;;;;;;;82.82;23.75;;;;;;;-145.45;100.00;62759.84;5214696;28;20459;-88
2021/12/19 07:32:58;;;;;;;81.07;23.23;;;;;;;-145.45;100.00;62759.84;5240263;28;20054;-88
2021/12/19 07:35:31;;;;;;;80.32;21.13;;;;;;;-145.45;100.00;62759.84;5227741;28;20023;-88
2021/12/19 07:38:04;;;;;;;79.75;22.58;;;;;;;-145.45;100.00;62759.84;5222302;28;20030;-88
2021/12/19 07:40:38;;;;;;;70.18;20.83;;;;;;;-145.45;100.00;62759.84;5210568;28;20521;-88
2021/12/19 07:43:10;;;;;;;57.95;20.48;;;;;;;-145.45;100.00;62759.84;5202418;28;20491;-89
2021/12/19 07:45:42;;;;;;;68.63;22.38;;;;;;;-145.45;100.00;62759.84;5208946;28;20027;-88
2021/12/19 07:48:14;;;;;;;75.72;23.60;;;;;;;-145.45;100.00;62759.84;5208587;28;20025;-88
2021/12/19 07:50:45;;;;;;;77.28;24.27;;;;;;;-145.45;100.00;62759.84;5208028;28;20041;-88
2021/12/19 07:53:17;;;;;;;81.32;25.85;;;;;;;-145.45;100.00;62759.84;5218645;28;20018;-88
2021/12/19 07:55:49;;;;;;;86.75;24.17;;;;;;;-145.45;100.00;62759.84;5227705;28;20030;-88
2021/12/19 07:58:21;;;;;;;86.00;23.50;;;;;;;-145.45;100.00;62759.84;5223208;28;20062;-88
2021/12/19 08:00:53;;;;;;;92.25;23.95;;;;;;;-145.45;100.00;62759.84;5214971;28;20072;-87
2021/12/19 08:03:24;;;;;;;89.55;24.60;;;;;;;-145.45;100.00;62759.84;5225372;28;20085;-88
2021/12/19 08:05:55;;;;;;;71.47;19.60;;;;;;;-145.45;100.00;62759.84;5224598;28;20138;-88
2021/12/19 08:08:31;;;;;;;65.63;16.88;;;;;;;-145.45;100.00;62759.84;5213239;28;20802;-88
2021/12/19 08:13:54;;;;;;;63.08;18.25;;;;;;;-145.45;100.00;62759.84;5217408;28;20034;-88
2021/12/19 08:16:25;;;;;;;61.97;18.45;;;;;;;-145.45;100.00;62759.84;5216730;28;20088;-88
2021/12/19 08:18:56;;;;;;;51.15;17.02;;;;;;;-145.45;100.00;62759.84;5203875;28;20018;-88
2021/12/19 08:21:28;;;;;;;50.95;16.42;;;;;;;-145.45;100.00;62759.84;5219583;28;20058;-88
2021/12/19 08:24:02;;;;;;;34.85;12.95;;;;;;;-145.45;100.00;62759.84;5223660;28;20081;-88
2021/12/19 08:26:33;;;;;;;49.53;16.33;;;;;;;-145.45;100.00;62759.84;5206056;28;20041;-88
2021/12/19 08:29:05;;;;;;;35.60;13.40;;;;;;;-145.45;100.00;62759.84;5203177;28;20018;-88
2021/12/19 08:31:36;;;;;;;32.00;12.50;;;;;;;-145.45;100.00;62759.84;5225721;28;20062;-88
2021/12/19 08:34:08;;;;;;;36.90;12.73;;;;;;;-145.45;100.00;62759.84;5205302;28;20032;-88
2021/12/19 08:36:40;;;;;;;52.80;16.35;;;;;;;-145.45;100.00;62759.84;5217937;28;20034;-88
2021/12/19 08:39:12;;;;;;;47.38;16.08;;;;;;;-145.45;100.00;62759.84;5220258;28;20379;-88
2021/12/19 08:41:44;;;;;;;50.97;17.50;;;;;;;-145.45;100.00;62759.84;5224297;28;20023;-88
2021/12/19 08:44:15;;;;;;;54.42;16.95;;;;;;;-145.45;100.00;62759.84;5222736;28;20057;-88
2021/12/19 08:46:47;;;;;;;53.45;16.42;;;;;;;-145.45;100.00;62759.84;5227627;28;20038;-88
2021/12/19 08:49:18;;;;;;;56.63;17.33;;;;;;;-145.45;100.00;62759.84;5223163;28;20031;-87
2021/12/19 08:51:50;;;;;;;53.15;17.85;;;;;;;-145.45;100.00;62759.84;5232313;28;20102;-88
2021/12/19 08:54:22;;;;;;;63.00;18.85;;;;;;;-145.45;100.00;62759.84;5229710;28;20088;-88
2021/12/19 08:56:53;;;;;;;62.50;19.52;;;;;;;-145.45;100.00;62759.84;5225544;28;20502;-89
2021/12/19 08:59:26;;;;;;;67.13;20.55;;;;;;;-145.45;100.00;62759.84;5220659;28;20057;-89
2021/12/19 09:02:01;;;;;;;69.63;20.73;;;;;;;-145.45;100.00;62759.84;5218103;28;20049;-89
2021/12/19 09:04:32;;;;;;;67.35;20.50;;;;;;;-145.45;100.00;62759.84;5200315;28;20089;-89
2021/12/19 09:07:03;;;;;;;58.97;19.38;;;;;;;-145.45;100.00;62759.84;5221645;28;20031;-88
2021/12/19 09:09:35;;;;;;;51.53;19.10;;;;;;;-145.45;100.00;62759.84;5221207;28;20431;-88
2021/12/19 09:12:07;;;;;;;47.47;16.90;;;;;;;-145.45;100.00;62759.84;5221945;28;20125;-88
2021/12/19 09:14:38;;;;;;;42.13;15.93;;;;;;;-145.45;100.00;62759.84;5220786;28;20157;-88
2021/12/19 09:17:10;;;;;;;43.83;16.80;;;;;;;-145.45;100.00;62759.84;5221827;28;20117;-88
2021/12/19 09:19:41;;;;;;;44.20;16.20;;;;;;;-145.45;100.00;62759.84;5221583;28;20022;-88
2021/12/19 09:22:12;;;;;;;36.53;14.60;;;;;;;-145.45;100.00;62759.84;5222460;28;20077;-88
2021/12/19 09:24:43;;;;;;;22.95;9.95;;;;;;;-145.45;100.00;62759.84;5219944;28;20026;-88
2021/12/19 09:27:16;;;;;;;22.05;9.05;;;;;;;-145.45;100.00;62759.84;5222613;28;20038;-88
2021/12/19 09:29:47;;;;;;;23.23;9.80;;;;;;;-145.45;100.00;62759.84;5204212;28;20038;-88
2021/12/19 09:32:18;;;;;;;21.67;9.27;;;;;;;-145.45;100.00;62759.84;5221600;28;20480;-87
2021/12/19 09:34:50;;;;;;;19.77;9.10;;;;;;;-145.45;100.00;62759.84;5222075;28;20027;-87
2021/12/19 09:37:21;;;;;;;19.40;7.45;;;;;;;-145.45;100.00;62759.84;5224417;28;20053;-89
2021/12/19 09:39:52;;;;;;;17.65;6.88;;;;;;;-145.45;100.00;62759.84;5223470;28;20448;-89
2021/12/19 09:42:33;;;;;;;13.05;6.40;;;;;;;-145.45;100.00;62759.84;5222776;28;20039;-88
2021/12/19 09:45:05;;;;;;;15.05;6.40;;;;;;;-145.45;100.00;62759.84;5221961;28;20375;-89
2021/12/19 09:47:38;;;;;;;11.45;5.35;;;;;;;-145.45;100.00;62759.84;5222129;28;20026;-88
2021/12/19 09:50:10;;;;;;;12.23;5.75;;;;;;;-145.45;100.00;62759.84;5221651;28;20018;-89
2021/12/19 09:52:41;;;;;;;13.07;5.40;;;;;;;-145.45;100.00;62759.84;5222206;28;20042;-88
2021/12/19 09:55:17;;;;;;;8.93;4.75;;;;;;;-145.45;100.00;62759.84;5223019;28;20801;-89
2021/12/19 09:57:51;;;;;;;9.52;4.78;;;;;;;-145.45;100.00;62759.84;5221260;28;20080;-89
2021/12/19 10:00:23;;;;;;;11.27;5.47;;;;;;;-145.45;100.00;62759.84;5222514;28;20034;-89
2021/12/19 10:02:54;;;;;;;12.02;5.95;;;;;;;-145.45;100.00;62759.84;5196428;28;20031;-89
2021/12/19 10:05:27;;;;;;;13.90;6.75;;;;;;;-145.45;100.00;62759.84;5204978;28;20050;-89
2021/12/19 10:08:01;;;;;;;13.55;7.00;;;;;;;-145.45;100.00;62759.84;5226159;28;20026;-89
2021/12/19 10:10:54;;;;;;;13.25;7.25;;;;;;;-145.45;100.00;62759.84;5230226;28;20026;-89
2021/12/19 10:13:37;;;;;;;16.25;7.55;;;;;;;-145.45;100.00;62759.84;5224733;28;20030;-89
2021/12/19 10:16:26;;;;;;;16.65;8.07;;;;;;;-145.45;100.00;62759.84;5209284;28;20026;-89
2021/12/19 10:18:59;;;;;;;16.25;7.95;;;;;;;-145.45;100.00;62759.84;5225912;28;20034;-89
2021/12/19 10:21:35;;;;;;;16.33;8.23;;;;;;;-145.45;100.00;62759.84;5223646;28;20034;-89
2021/12/19 10:24:09;;;;;;;17.10;8.13;;;;;;;-145.45;100.00;62759.84;5222636;28;20029;-89
2021/12/19 10:26:43;;;;;;;16.48;8.55;;;;;;;-145.45;100.00;62759.84;5204146;28;20286;-90
2021/12/19 10:29:14;;;;;;;17.17;8.38;;;;;;;-145.45;100.00;62759.84;5222152;28;20404;-89
2021/12/19 10:32:02;;;;;;;19.27;8.70;;;;;;;-145.45;100.00;62759.84;5204619;28;20073;-89
2021/12/19 10:34:34;;;;;;;15.07;7.93;;;;;;;-145.45;100.00;62759.84;5229764;28;20034;-89
2021/12/19 10:37:05;;;;;;;16.63;8.23;;;;;;;-145.45;100.00;62759.84;5221001;28;20042;-89
2021/12/19 10:39:39;;;;;;;17.65;9.18;;;;;;;-145.45;100.00;62759.84;5221312;28;20033;-89
2021/12/19 10:42:11;;;;;;;13.20;8.20;;;;;;;-145.45;100.00;62759.84;5221752;28;20022;-89
2021/12/19 10:47:37;;;;;;;15.02;7.82;;;;;;;-145.45;100.00;62759.84;5220879;28;20027;-89
2021/12/19 10:50:10;;;;;;;17.23;8.45;;;;;;;-145.45;100.00;62759.84;5212895;28;20038;-89
2021/12/19 10:52:41;;;;;;;12.82;8.20;;;;;;;-145.45;100.00;62759.84;5205282;28;20034;-89
2021/12/19 10:55:14;;;;;;;14.77;8.60;;;;;;;-145.45;100.00;62759.84;5208030;28;20054;-89
2021/12/19 10:57:46;;;;;;;15.50;8.57;;;;;;;-145.45;100.00;62759.84;5235127;28;20054;-89
2021/12/19 11:00:26;;;;;;;13.77;8.10;;;;;;;-145.45;100.00;62759.84;5226330;28;20023;-88
2021/12/19 11:02:57;;;;;;;12.57;7.95;;;;;;;-145.45;100.00;62759.84;5225755;28;20037;-88
2021/12/19 11:05:47;;;;;;;14.45;8.20;;;;;;;-145.45;100.00;62759.84;5214644;28;20030;-88
2021/12/19 11:08:18;;;;;;;12.25;7.40;;;;;;;-145.45;100.00;62759.84;5206124;28;36024;-88
2021/12/19 11:10:49;;;;;;;14.20;8.18;;;;;;;-145.45;100.00;62759.84;5222168;28;20044;-88
2021/12/19 11:13:21;;;;;;;14.35;8.20;;;;;;;-145.45;100.00;62759.84;5223010;28;20037;-88
2021/12/19 11:15:53;;;;;;;11.38;6.90;;;;;;;-145.45;100.00;62759.84;5224726;28;20034;-88
2021/12/19 11:18:24;;;;;;;15.98;7.85;;;;;;;-145.45;100.00;62759.84;5224725;28;20030;-88
2021/12/19 11:20:56;;;;;;;15.50;8.00;;;;;;;-145.45;100.00;62759.84;5216027;28;20042;-88
2021/12/19 11:23:28;;;;;;;13.95;8.00;;;;;;;-145.45;100.00;62759.84;5206157;28;20044;-88
2021/12/19 11:26:02;;;;;;;11.57;7.15;;;;;;;-145.45;100.00;62759.84;5229011;28;20082;-88
2021/12/19 11:28:37;;;;;;;12.50;7.95;;;;;;;-145.45;100.00;62759.84;5235453;28;20022;-88
2021/12/19 11:31:11;;;;;;;12.07;7.97;;;;;;;-145.45;100.00;62759.84;5234481;28;20085;-88
2021/12/19 11:34:08;;;;;;;14.52;7.65;;;;;;;-145.45;100.00;62759.84;5227344;28;20023;-88
2021/12/19 11:36:42;;;;;;;10.87;7.23;;;;;;;-145.45;100.00;62759.84;5233736;28;20022;-87
2021/12/19 11:39:14;;;;;;;11.75;7.25;;;;;;;-145.45;100.00;62759.84;5233214;28;20956;-87
2021/12/19 11:42:10;;;;;;;10.55;7.18;;;;;;;-145.45;100.00;62759.84;5225467;28;20030;-87
2021/12/19 11:47:51;;;;;;;9.75;6.55;;;;;;;-145.45;100.00;62759.84;5223283;28;20506;-87
2021/12/19 11:50:27;;;;;;;10.30;5.72;;;;;;;-145.45;100.00;62759.84;5223438;28;20031;-87
2021/12/19 11:53:07;;;;;;;8.65;5.60;;;;;;;-145.45;100.00;62759.84;5215431;28;20046;-87
2021/12/19 11:55:51;;;;;;;7.00;5.18;;;;;;;-145.45;100.00;62759.84;5214018;28;20042;-87
2021/12/19 11:58:36;;;;;;;7.85;5.20;;;;;;;-145.45;100.00;62759.84;5211744;28;20068;-87
2021/12/19 12:01:28;;;;;;;5.93;4.90;;;;;;;-145.45;100.00;62759.84;5216061;28;40328;-87
2021/12/19 12:04:23;;;;;;;6.97;4.97;;;;;;;-145.45;100.00;62759.84;5223392;28;20023;-87
2021/12/19 12:06:56;;;;;;;7.57;5.18;;;;;;;-145.45;100.00;62759.84;5204710;28;20043;-87
2021/12/19 12:09:32;;;;;;;7.10;4.95;;;;;;;-145.45;100.00;62759.84;5203336;28;20471;-87
2021/12/19 12:12:13;;;;;;;6.95;4.97;;;;;;;-145.45;100.00;62759.84;5222441;28;20030;-87
2021/12/19 12:14:54;;;;;;;9.20;5.18;;;;;;;-145.45;100.00;62759.84;5223037;28;20034;-87
2021/12/19 12:17:35;;;;;;;7.88;5.28;;;;;;;-145.45;100.00;62759.84;5222691;28;20037;-87
2021/12/19 12:20:19;;;;;;;5.82;4.30;;;;;;;-145.45;100.00;62759.84;5204627;28;20109;-87
2021/12/19 12:22:59;;;;;;;9.45;5.63;;;;;;;-145.45;100.00;62759.84;5205116;28;20034;-87
2021/12/19 12:25:34;;;;;;;8.65;5.15;;;;;;;-145.45;100.00;62759.84;5204670;28;20030;-87
2021/12/19 12:28:09;;;;;;;7.07;4.80;;;;;;;-145.45;100.00;62759.84;5223192;28;20014;-86
2021/12/19 12:30:46;;;;;;;6.70;4.72;;;;;;;-145.45;100.00;62759.84;5205053;28;20435;-87